Time;durP1;ratioP1;P1;durP2;ratioP2;P2;SDS_P1;SDS_P2;PMS_P1;PMS_P2;Temp;Humidity;BMP_temperature;BMP_pressure;BME280_temperature;BME280_humidity;BME280_pressure;Samples;Min_cycle;Max_cycle;Signal;HPM_P1;HPM_P2
2023/04/20 00:00:20;;;;;;;16.30;8.10;;;;;;;11.04;100.00;99829.05;123911;1102;104245;-79
2023/04/20 00:03:12;;;;;;;12.60;6.93;;;;;;;11.05;100.00;99832.58;123944;1102;104282;-79
2023/04/20 00:05:44;;;;;;;14.87;7.13;;;;;;;11.04;100.00;99836.05;124164;1102;104383;-79
2023/04/20 00:08:16;;;;;;;13.07;6.50;;;;;;;11.03;100.00;99832.54;124092;1102;104254;-79
2023/04/20 00:10:47;;;;;;;12.85;6.50;;;;;;;11.04;100.00;99825.55;123872;1102;104271;-79
2023/04/20 00:13:18;;;;;;;13.33;6.97;;;;;;;11.04;100.00;99831.67;123876;1102;104233;-78
2023/04/20 00:15:50;;;;;;;17.03;7.20;;;;;;;11.04;100.00;99828.17;124025;1102;104438;-78
2023/04/20 00:18:21;;;;;;;14.33;7.00;;;;;;;11.06;100.00;99829.08;123916;1102;104288;-78
2023/04/20 00:20:52;;;;;;;15.87;7.13;;;;;;;11.06;100.00;99827.33;124172;1102;104271;-78
2023/04/20 00:23:23;;;;;;;12.97;6.43;;;;;;;11.06;100.00;99823.83;124503;1102;104238;-78
2023/04/20 00:25:55;;;;;;;13.97;6.40;;;;;;;11.05;100.00;99825.58;124207;1102;104248;-77
2023/04/20 00:28:26;;;;;;;15.43;7.13;;;;;;;11.06;100.00;99821.20;124285;1102;104775;-77
2023/04/20 00:30:57;;;;;;;12.27;6.53;;;;;;;11.05;100.00;99825.58;124159;1102;105736;-77
2023/04/20 00:33:28;;;;;;;14.93;6.60;;;;;;;11.03;100.00;99824.67;124352;1102;104325;-78
2023/04/20 00:36:00;;;;;;;13.87;6.37;;;;;;;11.03;100.00;99824.67;124376;1102;104173;-78
2023/04/20 00:38:31;;;;;;;11.10;6.33;;;;;;;11.03;100.00;99819.41;124510;1102;104232;-77
2023/04/20 00:41:04;;;;;;;13.57;6.73;;;;;;;11.02;100.00;99815.00;124062;1102;104229;-77
2023/04/20 00:43:35;;;;;;;14.87;6.63;;;;;;;11.00;100.00;99816.72;124465;1102;104211;-78
2023/04/20 00:46:07;;;;;;;12.40;6.20;;;;;;;11.01;100.00;99817.59;124235;1102;104240;-78
2023/04/20 00:48:38;;;;;;;11.35;5.65;;;;;;;11.03;100.00;99813.25;124047;1102;104233;-78
2023/04/20 00:51:10;;;;;;;13.70;6.07;;;;;;;11.01;100.00;99810.59;123881;1102;104248;-78
2023/04/20 00:53:42;;;;;;;11.27;5.70;;;;;;;11.02;100.00;99806.25;123991;1102;117969;-77
2023/04/20 00:56:15;;;;;;;13.67;6.80;;;;;;;11.01;100.00;99809.72;124101;1102;104259;-78
2023/04/20 00:58:47;;;;;;;14.60;6.90;;;;;;;10.98;100.00;99800.02;124303;1102;104246;-78
2023/04/20 01:01:18;;;;;;;13.83;7.27;;;;;;;10.97;100.00;99804.40;124357;1102;104245;-77
2023/04/20 01:03:50;;;;;;;19.70;8.50;;;;;;;10.97;100.00;99800.90;124253;1102;104290;-78
2023/04/20 01:06:22;;;;;;;20.13;9.80;;;;;;;10.95;100.00;99803.48;124364;1102;104247;-78
2023/04/20 01:08:53;;;;;;;21.17;10.30;;;;;;;10.94;100.00;99806.95;124234;1101;104323;-79
2023/04/20 01:11:25;;;;;;;22.83;10.90;;;;;;;10.94;100.00;99800.83;124077;1102;104291;-78
2023/04/20 01:13:56;;;;;;;21.70;11.83;;;;;;;10.92;100.00;99798.17;124157;1102;110551;-79
2023/04/20 01:16:28;;;;;;;21.83;10.70;;;;;;;10.91;100.00;99798.13;124326;1102;104303;-79
2023/04/20 01:18:59;;;;;;;24.13;12.00;;;;;;;10.88;100.00;99792.81;124634;1102;104373;-78
2023/04/20 01:21:31;;;;;;;23.27;11.63;;;;;;;10.89;100.00;99799.81;124336;1102;104211;-79
2023/04/20 01:24:04;;;;;;;20.25;10.85;;;;;;;10.86;100.00;99795.40;124236;1102;104299;-78
2023/04/20 01:26:37;;;;;;;22.07;11.73;;;;;;;10.85;100.00;99787.48;124299;1102;104201;-78
2023/04/20 01:29:08;;;;;;;20.93;10.03;;;;;;;10.83;100.00;99791.80;124010;1102;104245;-78
2023/04/20 01:31:40;;;;;;;19.27;10.40;;;;;;;10.83;100.00;99781.30;124046;1102;104318;-78
2023/04/20 01:34:11;;;;;;;19.80;9.90;;;;;;;10.84;100.00;99783.08;123840;1102;104347;-76
2023/04/20 01:36:44;;;;;;;20.67;9.80;;;;;;;10.83;100.00;99781.30;123776;1102;104354;-77
2023/04/20 01:39:15;;;;;;;19.87;9.23;;;;;;;10.84;100.00;99783.08;123798;1102;104273;-79
2023/04/20 01:41:46;;;;;;;17.50;8.70;;;;;;;10.83;100.00;99770.80;123842;1102;104284;-77
2023/04/20 01:44:18;;;;;;;16.03;8.10;;;;;;;10.82;100.00;99772.55;124150;1102;104245;-77
2023/04/20 01:46:49;;;;;;;15.33;7.73;;;;;;;10.82;100.00;99775.17;124506;1102;104398;-77
2023/04/20 01:49:20;;;;;;;14.57;7.17;;;;;;;10.81;100.00;99769.89;124321;1102;104225;-77
2023/04/20 01:51:51;;;;;;;18.77;8.10;;;;;;;10.79;100.00;99768.10;124840;1099;104278;-77
2023/04/20 01:54:23;;;;;;;15.00;7.67;;;;;;;10.80;100.00;99766.39;124588;1099;104322;-78
2023/04/20 01:56:54;;;;;;;20.63;8.83;;;;;;;10.81;100.00;99772.52;124548;1099;104245;-78
2023/04/20 01:59:26;;;;;;;20.07;9.67;;;;;;;10.81;100.00;99764.64;123850;1102;104338;-78
2023/04/20 02:01:57;;;;;;;23.10;11.17;;;;;;;10.79;100.00;99765.48;124087;1099;104222;-79
2023/04/20 02:04:29;;;;;;;22.70;11.07;;;;;;;10.80;100.00;99766.39;123994;1099;104270;-79
2023/04/20 02:07:00;;;;;;;24.10;11.90;;;;;;;10.80;100.00;99769.02;124157;1099;104271;-79
2023/04/20 02:09:31;;;;;;;24.23;11.63;;;;;;;10.80;100.00;99769.02;124135;1099;104309;-78
2023/04/20 02:12:03;;;;;;;23.10;11.77;;;;;;;10.79;100.00;99770.73;124168;1099;104399;-78
2023/04/20 02:14:34;;;;;;;25.85;12.40;;;;;;;10.78;100.00;99766.35;124305;1099;104271;-77
2023/04/20 02:17:06;;;;;;;24.87;13.00;;;;;;;10.81;100.00;99768.14;124071;1099;104271;-78
2023/04/20 02:19:37;;;;;;;25.27;12.70;;;;;;;10.83;100.00;99765.55;123902;1099;104223;-78
2023/04/20 02:22:09;;;;;;;23.40;12.73;;;;;;;10.84;100.00;99764.71;123895;1099;104375;-79
2023/04/20 02:24:42;;;;;;;26.90;12.73;;;;;;;10.83;100.00;99765.55;124028;1098;104415;-78
2023/04/20 02:27:13;;;;;;;24.43;12.75;;;;;;;10.84;100.00;99768.20;123975;1099;104232;-78
2023/04/20 02:29:45;;;;;;;24.00;12.57;;;;;;;10.83;100.00;99766.46;123726;1099;104319;-77
2023/04/20 02:32:18;;;;;;;29.60;13.25;;;;;;;10.84;100.00;99767.33;124174;1099;104322;-78
2023/04/20 02:34:49;;;;;;;27.13;12.67;;;;;;;10.85;100.00;99771.74;124145;1099;104386;-78
2023/04/20 02:37:21;;;;;;;27.17;13.47;;;;;;;10.84;100.00;99772.58;124078;1099;104252;-79
2023/04/20 02:39:53;;;;;;;30.63;14.60;;;;;;;10.84;100.00;99764.71;124103;1099;104280;-79
2023/04/20 02:42:24;;;;;;;28.90;13.60;;;;;;;10.86;100.00;99773.49;124026;1102;104252;-80
2023/04/20 02:44:56;;;;;;;27.07;14.73;;;;;;;10.85;100.00;99775.24;123872;1099;104354;-78
2023/04/20 02:47:27;;;;;;;28.23;13.97;;;;;;;10.85;100.00;99774.36;123972;1102;104367;-79
2023/04/20 02:49:59;;;;;;;33.03;15.47;;;;;;;10.85;100.00;99779.61;124011;1100;104290;-79
2023/04/20 02:52:30;;;;;;;34.25;15.40;;;;;;;10.86;100.00;99782.27;124019;1099;104873;-79
2023/04/20 02:55:01;;;;;;;37.73;14.70;;;;;;;10.85;100.00;99788.36;123939;1100;104251;-79
2023/04/20 02:57:33;;;;;;;31.10;15.27;;;;;;;10.85;100.00;99783.11;123922;1099;104155;-78
2023/04/20 03:00:07;;;;;;;31.97;14.67;;;;;;;10.85;100.00;99792.73;123667;1099;104342;-77
2023/04/20 03:02:57;;;;;;;31.63;14.50;;;;;;;10.85;100.00;99788.36;124533;1099;104223;-78
2023/04/20 03:05:29;;;;;;;37.90;16.93;;;;;;;10.86;100.00;99790.15;124018;1099;104370;-78
2023/04/20 03:08:03;;;;;;;30.80;14.93;;;;;;;10.85;100.00;99795.36;124289;1099;104172;-78
2023/04/20 03:10:33;;;;;;;;;;;;;;;10.84;100.00;99789.20;123990;1099;104165;-79
2023/04/20 03:13:18;;;;;;;37.77;14.03;;;;;;;10.83;100.00;99787.45;123914;1102;104256;-78
2023/04/20 03:15:59;;;;;;;35.60;15.30;;;;;;;10.83;100.00;99797.05;124046;1099;104371;-78
2023/04/20 03:18:38;;;;;;;32.33;15.50;;;;;;;10.83;100.00;99791.80;124403;1099;104294;-78
2023/04/20 03:21:11;;;;;;;33.47;15.70;;;;;;;10.82;100.00;99795.29;124316;1099;104226;-78
2023/04/20 03:23:43;;;;;;;31.17;15.07;;;;;;;10.80;100.00;99797.88;124529;1099;104247;-78
2023/04/20 03:26:14;;;;;;;35.73;15.67;;;;;;;10.77;100.00;99793.44;124486;1099;104226;-78
2023/04/20 03:29:07;;;;;;;28.63;14.90;;;;;;;10.74;100.00;99797.73;123889;1102;104363;-79
2023/04/20 03:31:39;;;;;;;29.23;13.97;;;;;;;10.71;100.00;99795.91;124307;1099;104255;-79
2023/04/20 03:34:10;;;;;;;30.97;14.73;;;;;;;10.68;100.00;99803.71;124158;1099;104201;-78
2023/04/20 03:36:42;;;;;;;28.03;14.60;;;;;;;10.67;100.00;99803.67;124398;1099;104246;-78
2023/04/20 03:39:15;;;;;;;33.83;15.30;;;;;;;10.64;100.00;99801.84;124104;1099;104288;-79
2023/04/20 03:41:46;;;;;;;31.68;15.13;;;;;;;10.64;100.00;99806.22;124518;1099;104704;-78
2023/04/20 03:44:18;;;;;;;31.50;13.83;;;;;;;10.63;100.00;99812.30;124482;1099;104376;-78
2023/04/20 03:46:49;;;;;;;33.63;14.07;;;;;;;10.62;100.00;99808.80;124687;1099;104254;-79
2023/04/20 03:49:25;;;;;;;30.88;14.25;;;;;;;10.61;100.00;99807.94;124166;1099;104354;-78
2023/04/20 03:51:56;;;;;;;29.50;13.70;;;;;;;10.61;100.00;99812.27;124572;1099;104233;-79
2023/04/20 03:54:27;;;;;;;28.00;13.53;;;;;;;10.61;100.00;99807.02;124817;1099;104243;-80
2023/04/20 03:56:59;;;;;;;29.73;13.97;;;;;;;10.62;100.00;99821.92;124225;1099;104683;-78
2023/04/20 03:59:31;;;;;;;33.20;13.70;;;;;;;10.61;100.00;99817.52;124167;1100;102330;-77
2023/04/20 04:02:04;;;;;;;27.73;13.27;;;;;;;10.61;100.00;99820.14;124665;1101;104191;-80
2023/04/20 04:04:36;;;;;;;29.67;12.75;;;;;;;10.63;100.00;99817.55;124690;1099;104239;-78
2023/04/20 04:07:07;;;;;;;32.90;13.70;;;;;;;10.63;100.00;99820.17;124616;1099;104361;-79
2023/04/20 04:09:38;;;;;;;22.63;11.33;;;;;;;10.64;100.00;99825.46;124327;1102;104165;-80
2023/04/20 04:12:11;;;;;;;27.70;12.83;;;;;;;10.65;100.00;99819.38;124337;1099;104222;-78
2023/04/20 04:14:43;;;;;;;25.63;10.73;;;;;;;10.63;100.00;99826.34;124292;1099;104239;-78
2023/04/20 04:17:16;;;;;;;22.50;11.27;;;;;;;10.61;100.00;99822.77;124240;1099;105618;-78
2023/04/20 04:19:48;;;;;;;24.40;9.20;;;;;;;10.57;100.00;99832.30;124275;1098;104367;-78
2023/04/20 04:22:19;;;;;;;20.23;9.93;;;;;;;10.56;100.00;99827.02;124247;1099;104271;-80
2023/04/20 04:25:06;;;;;;;24.20;10.40;;;;;;;10.54;100.00;99824.36;124384;1102;104411;-80
2023/04/20 04:27:38;;;;;;;27.03;9.97;;;;;;;10.53;100.00;99834.81;124419;1102;102390;-80
2023/04/20 04:30:12;;;;;;;22.80;9.70;;;;;;;10.54;100.00;99834.85;124338;1100;104319;-79
2023/04/20 04:32:43;;;;;;;;;;;;;;;10.55;100.00;99840.97;124485;1099;104188;-79
2023/04/20 04:35:15;;;;;;;18.03;7.67;;;;;;;10.53;100.00;99842.68;124443;1099;104272;-80
2023/04/20 04:37:46;;;;;;;19.43;7.67;;;;;;;10.48;100.00;99844.31;124321;1099;104270;-79
2023/04/20 04:40:18;;;;;;;15.67;6.83;;;;;;;10.46;100.00;99844.27;124568;1099;104239;-80
2023/04/20 04:42:51;;;;;;;15.70;6.37;;;;;;;10.44;100.00;99843.36;124338;1102;104252;-78
2023/04/20 04:45:24;;;;;;;15.87;5.37;;;;;;;10.42;100.00;99851.19;124272;1102;104226;-80
2023/04/20 04:47:57;;;;;;;10.70;4.90;;;;;;;10.39;100.00;99858.97;124405;1099;104303;-82
2023/04/20 04:50:29;;;;;;;8.75;4.47;;;;;;;10.34;100.00;99857.94;124312;1099;104323;-80
2023/04/20 04:53:00;;;;;;;9.40;4.40;;;;;;;10.32;100.00;99853.49;124370;1099;104265;-79
2023/04/20 04:55:31;;;;;;;13.77;5.87;;;;;;;10.30;100.00;99858.70;124336;1099;104287;-79
2023/04/20 04:58:03;;;;;;;14.57;6.20;;;;;;;10.28;100.00;99857.74;124157;1099;104347;-80
2023/04/20 05:00:34;;;;;;;16.30;6.53;;;;;;;10.25;100.00;99861.19;124462;1099;104261;-79
2023/04/20 05:03:06;;;;;;;25.70;9.40;;;;;;;10.22;100.00;99862.82;124354;1099;104223;-82
2023/04/20 05:05:37;;;;;;;21.97;9.30;;;;;;;10.22;100.00;99868.06;124434;1099;102096;-82
2023/04/20 05:08:08;;;;;;;24.57;10.03;;;;;;;10.22;100.00;99873.31;124390;1099;104296;-80
2023/04/20 05:10:41;;;;;;;22.70;9.07;;;;;;;10.22;100.00;99870.69;124435;1102;103052;-76
2023/04/20 05:13:13;;;;;;;14.77;5.43;;;;;;;10.25;100.00;99869.06;124155;1099;104166;-77
2023/04/20 05:15:46;;;;;;;12.57;5.27;;;;;;;10.28;100.00;99870.86;124355;1099;104226;-78
2023/04/20 05:18:16;;;;;;;;;;;;;;;10.25;100.00;99868.16;124292;1099;104155;-80
2023/04/20 05:20:48;;;;;;;10.13;4.30;;;;;;;10.24;100.00;99874.27;124366;1099;104175;-78
2023/04/20 05:23:20;;;;;;;8.13;4.10;;;;;;;10.21;100.00;99875.06;124140;1099;104242;-79
2023/04/20 05:25:52;;;;;;;10.57;4.83;;;;;;;10.22;100.00;99875.94;124504;1099;104220;-80
2023/04/20 05:28:24;;;;;;;13.95;5.40;;;;;;;10.22;100.00;99884.70;124629;1099;104351;-79
2023/04/20 05:30:56;;;;;;;9.57;5.20;;;;;;;10.21;100.00;99879.42;124606;1099;103334;-78
2023/04/20 05:33:28;;;;;;;12.97;5.40;;;;;;;10.22;100.00;99886.42;125372;1099;102595;-78
2023/04/20 05:36:00;;;;;;;13.80;5.35;;;;;;;10.20;100.00;99882.88;125247;1099;102672;-79
2023/04/20 05:38:33;;;;;;;10.97;5.60;;;;;;;10.20;100.00;99893.37;125011;1099;104200;-78
2023/04/20 05:41:07;;;;;;;14.73;6.37;;;;;;;10.20;100.00;99881.14;125016;1099;102896;-79
2023/04/20 05:43:39;;;;;;;15.07;6.20;;;;;;;10.19;100.00;99888.95;124985;1102;102489;-79
2023/04/20 05:46:11;;;;;;;16.77;6.50;;;;;;;10.20;100.00;99898.61;125013;1099;104286;-79
2023/04/20 05:48:43;;;;;;;14.77;6.93;;;;;;;10.19;100.00;99891.58;125187;1099;104242;-79
2023/04/20 05:51:15;;;;;;;17.07;6.63;;;;;;;10.16;100.00;99894.12;125373;1099;104066;-80
2023/04/20 05:53:46;;;;;;;16.33;7.20;;;;;;;10.19;100.00;99896.83;125424;1098;104133;-81
2023/04/20 05:56:18;;;;;;;17.20;7.30;;;;;;;10.16;100.00;99896.73;125281;1099;104125;-81
2023/04/20 05:58:53;;;;;;;16.10;7.13;;;;;;;10.17;100.00;99901.15;125089;1102;102505;-81
2023/04/20 06:01:25;;;;;;;17.40;7.33;;;;;;;10.15;100.00;99892.36;126159;1098;103139;-80
2023/04/20 06:04:04;;;;;;;20.00;7.70;;;;;;;10.13;100.00;99896.66;126126;1099;102488;-80
2023/04/20 06:06:36;;;;;;;18.60;7.73;;;;;;;10.13;100.00;99892.32;126013;1099;102764;-83
2023/04/20 06:09:12;;;;;;;16.60;7.33;;;;;;;10.19;100.00;99896.83;126275;1098;102470;-82
2023/04/20 06:11:49;;;;;;;17.03;7.73;;;;;;;10.20;100.00;99898.61;126243;1098;103932;-80
2023/04/20 06:14:26;;;;;;;16.40;7.70;;;;;;;10.17;100.00;99895.91;126159;1102;102238;-80
2023/04/20 06:19:43;;;;;;;16.83;7.17;;;;;;;10.12;100.00;99890.53;126220;1099;103268;-77
2023/04/20 06:22:16;;;;;;;17.90;6.90;;;;;;;10.11;100.00;99899.23;126202;1099;102453;-79
2023/04/20 06:24:48;;;;;;;19.63;7.60;;;;;;;10.07;100.00;99902.63;126148;1099;101969;-78
2023/04/20 06:27:20;;;;;;;19.13;7.23;;;;;;;10.08;100.00;99905.30;126081;1100;102061;-77
2023/04/20 06:29:53;;;;;;;20.30;6.87;;;;;;;10.08;100.00;99902.67;126166;1099;102585;-77
2023/04/20 06:32:25;;;;;;;21.45;7.78;;;;;;;10.13;100.00;99904.52;126179;1099;102514;-77
2023/04/20 06:34:56;;;;;;;19.90;7.13;;;;;;;10.17;100.00;99909.02;126219;1099;102285;-78
2023/04/20 06:37:29;;;;;;;18.77;6.33;;;;;;;10.17;100.00;99914.26;126126;1099;102591;-81
2023/04/20 06:40:06;;;;;;;17.30;6.67;;;;;;;10.10;100.00;99917.54;126033;1099;102638;-78
2023/04/20 06:42:51;;;;;;;18.73;6.60;;;;;;;10.02;100.00;99920.85;126229;1098;102264;-78
2023/04/20 06:45:24;;;;;;;17.67;6.77;;;;;;;9.96;100.00;99920.67;126593;1099;102346;-80
2023/04/20 06:47:57;;;;;;;18.33;6.47;;;;;;;9.88;100.00;99922.20;126242;1099;101890;-78
2023/04/20 06:50:37;;;;;;;19.83;6.13;;;;;;;9.77;100.00;99931.45;126813;1099;102331;-80
2023/04/20 06:53:09;;;;;;;24.70;7.10;;;;;;;9.71;100.00;99930.43;126698;1099;102598;-79
2023/04/20 06:55:40;;;;;;;20.07;7.00;;;;;;;9.64;100.00;99928.45;126261;1099;102408;-80
2023/04/20 06:58:14;;;;;;;28.20;8.30;;;;;;;9.62;100.00;99930.16;125626;1099;104194;-82
2023/04/20 07:00:59;;;;;;;23.85;9.35;;;;;;;9.60;100.00;99925.70;125399;1099;104245;-82
2023/04/20 07:03:39;;;;;;;26.23;8.40;;;;;;;9.57;100.00;99928.22;126137;1099;102907;-83
2023/04/20 07:06:11;;;;;;;22.93;7.03;;;;;;;9.51;100.00;99931.56;126151;1099;102329;-79
2023/04/20 07:11:30;;;;;;;24.17;7.33;;;;;;;9.48;100.00;99926.23;125280;1099;110186;-81
2023/04/20 07:14:05;;;;;;;;;;;;;;;9.47;100.00;99937.53;125510;1099;103845;-83
2023/04/20 07:16:46;;;;;;;25.47;8.60;;;;;;;9.50;100.00;99929.77;126365;1099;103048;-81
2023/04/20 07:19:23;;;;;;;24.97;8.23;;;;;;;9.57;100.00;99930.84;126241;1099;104332;-80
2023/04/20 07:21:57;;;;;;;30.63;8.60;;;;;;;9.61;100.00;99932.72;125288;1098;102592;-79
2023/04/20 07:24:29;;;;;;;25.60;7.53;;;;;;;9.60;100.00;99929.23;124991;1099;104281;-78
2023/04/20 07:27:02;;;;;;;27.60;7.70;;;;;;;9.61;100.00;99932.72;124758;1099;104281;-78
2023/04/20 07:29:37;;;;;;;22.03;6.57;;;;;;;9.64;100.00;99933.70;125405;1099;102763;-76
2023/04/20 07:32:17;;;;;;;28.55;6.65;;;;;;;9.62;100.00;99930.16;125237;1099;104239;-78
2023/04/20 07:34:51;;;;;;;18.55;6.25;;;;;;;9.59;100.00;99924.82;125097;1102;102799;-79
2023/04/20 12:02:36;;;;;;;29.03;12.57;;;;;;;9.84;100.00;99894.11;125378;1102;102656;-78
2023/04/20 12:05:37;;;;;;;37.67;13.20;;;;;;;9.90;100.00;99883.80;125068;1106;102703;-81
2023/04/20 12:08:19;;;;;;;27.57;12.60;;;;;;;9.96;100.00;99883.11;124909;1106;102957;-80
2023/04/20 12:11:04;;;;;;;28.87;11.87;;;;;;;10.03;100.00;99887.66;125392;1105;103341;-83
2023/04/20 12:13:38;;;;;;;26.07;11.27;;;;;;;10.13;100.00;99880.92;125265;1105;102864;-84
2023/04/20 12:16:18;;;;;;;27.33;11.07;;;;;;;10.20;100.00;99888.13;125433;1105;103168;-81
2023/04/20 12:19:00;;;;;;;22.13;11.20;;;;;;;10.28;100.00;99878.72;125406;1105;104252;-81
2023/04/20 12:21:38;;;;;;;20.80;8.80;;;;;;;10.33;100.00;99884.13;124893;1105;104625;-80
2023/04/20 12:24:27;;;;;;;18.73;7.92;;;;;;;10.35;100.00;99878.09;125533;1103;103496;-82
2023/04/20 12:27:09;;;;;;;26.30;8.77;;;;;;;10.43;100.00;99880.91;125457;1105;102415;-81
2023/04/20 12:29:41;;;;;;;;;;;;;;;10.51;100.00;99883.73;124526;1105;103479;-79
2023/04/20 12:32:15;;;;;;;19.93;7.30;;;;;;;10.57;100.00;99876.02;124816;1106;103109;-81
2023/04/20 12:34:50;;;;;;;21.13;8.17;;;;;;;10.59;100.00;99877.82;124688;1105;104246;-82
2023/04/20 12:37:25;;;;;;;21.23;8.10;;;;;;;10.63;100.00;99884.05;125371;1105;102909;-83
2023/04/20 12:40:02;;;;;;;22.13;7.70;;;;;;;10.67;100.00;99875.39;125447;1105;104962;-81
2023/04/20 12:42:36;;;;;;;21.33;7.10;;;;;;;10.74;100.00;99871.20;125118;1105;104178;-81
2023/04/20 12:45:16;;;;;;;21.13;7.07;;;;;;;10.79;100.00;99869.58;124833;1105;102420;-80
2023/04/20 12:47:52;;;;;;;17.73;6.73;;;;;;;10.81;100.00;99866.98;125444;1105;103035;-76
2023/04/20 12:50:24;;;;;;;17.93;5.73;;;;;;;10.77;100.00;99864.29;124768;1103;104244;-80
2023/04/20 12:53:10;;;;;;;21.23;6.33;;;;;;;10.76;100.00;99866.88;124711;1105;103613;-79
2023/04/20 12:55:41;;;;;;;18.47;6.60;;;;;;;10.75;100.00;99863.37;124892;1103;104251;-80
2023/04/20 12:58:16;;;;;;;16.32;6.03;;;;;;;10.70;100.00;99864.97;124873;1105;104178;-80
2023/04/20 13:00:50;;;;;;;20.13;6.57;;;;;;;10.64;100.00;99856.07;124950;1105;102748;-83
2023/04/20 13:03:28;;;;;;;18.80;7.00;;;;;;;10.56;100.00;99854.13;125321;1105;104198;-80
2023/04/20 13:06:03;;;;;;;16.00;6.30;;;;;;;10.47;100.00;99855.64;125348;1105;103424;-80
2023/04/20 13:08:39;;;;;;;22.80;7.00;;;;;;;10.39;100.00;99852.81;125473;1102;104197;-81
2023/04/20 13:11:28;;;;;;;22.47;6.73;;;;;;;10.31;100.00;99846.46;125327;1102;102928;-80
2023/04/20 13:14:03;;;;;;;19.20;6.70;;;;;;;10.26;100.00;99848.96;124546;1102;102404;-84
2023/04/20 13:16:37;;;;;;;25.60;7.70;;;;;;;10.23;100.00;99835.77;124548;1105;104265;-82
2023/04/20 13:19:21;;;;;;;27.03;7.63;;;;;;;10.20;100.00;99841.80;125293;1105;104319;-80
2023/04/20 13:21:57;;;;;;;19.63;6.97;;;;;;;10.18;100.00;99840.02;125415;1102;104112;-83
2023/04/20 13:27:24;;;;;;;20.23;6.40;;;;;;;10.09;100.00;99843.27;125401;1105;103641;-84
2023/04/20 13:30:00;;;;;;;;;;;;;;;10.04;100.00;99843.14;125330;1102;104347;-82
2023/04/20 13:32:36;;;;;;;23.23;7.00;;;;;;;9.99;100.00;99844.75;124518;1102;103850;-83
2023/04/20 13:35:11;;;;;;;;;;;;;;;9.96;100.00;99843.80;124724;1105;104149;-83
2023/04/20 13:38:03;;;;;;;24.03;9.40;;;;;;;9.89;100.00;99840.09;125466;1105;104137;-81
2023/04/20 13:40:48;;;;;;;27.07;10.50;;;;;;;9.84;100.00;99834.72;125928;1104;102621;-84
2023/04/20 13:43:36;;;;;;;27.07;9.17;;;;;;;9.82;100.00;99838.16;125878;1102;102702;-82
2023/04/20 13:46:43;;;;;;;23.67;8.30;;;;;;;9.78;100.00;99833.67;125622;1102;104229;-83
2023/04/20 13:49:33;;;;;;;19.23;8.53;;;;;;;9.77;100.00;99843.27;125476;1103;102446;-87
2023/04/20 13:52:16;;;;;;;22.83;7.30;;;;;;;9.83;100.00;99840.83;125403;1105;102936;-84
2023/04/20 13:54:55;;;;;;;20.20;7.60;;;;;;;9.87;100.00;99839.17;125373;1105;104079;-85
2023/04/20 13:57:31;;;;;;;21.47;7.30;;;;;;;9.88;100.00;99833.97;125475;1105;102691;-82
2023/04/20 14:00:19;;;;;;;15.63;6.33;;;;;;;9.95;100.00;99840.27;125373;1105;102098;-83
2023/04/20 14:03:25;;;;;;;21.27;7.27;;;;;;;10.01;100.00;99837.81;125299;1105;102997;-82
2023/04/20 14:06:02;;;;;;;24.30;7.47;;;;;;;10.05;100.00;99830.91;125421;1102;108540;-81
2023/04/20 14:08:34;;;;;;;21.13;7.10;;;;;;;10.04;100.00;99835.27;125268;1102;104047;-84
2023/04/20 14:11:09;;;;;;;20.70;7.07;;;;;;;10.02;100.00;99831.73;124597;1105;103019;-86
2023/04/20 14:13:43;;;;;;;18.83;6.80;;;;;;;10.00;100.00;99833.44;125316;1102;103232;-81
2023/04/20 14:16:14;;;;;;;18.47;6.30;;;;;;;9.96;100.00;99830.69;125300;1105;102395;-83
2023/04/20 14:18:46;;;;;;;16.00;6.57;;;;;;;9.92;100.00;99840.17;125399;1105;102601;-81
2023/04/20 14:21:19;;;;;;;22.20;5.57;;;;;;;9.88;100.00;99827.86;124933;1106;104259;-84
2023/04/20 14:23:52;;;;;;;13.40;5.63;;;;;;;9.82;100.00;99831.18;125502;1106;102813;-83
2023/04/20 14:26:27;;;;;;;16.67;5.77;;;;;;;9.80;100.00;99839.83;125398;1106;104336;-84
2023/04/20 14:28:59;;;;;;;17.67;5.10;;;;;;;9.77;100.00;99837.12;125621;1102;102629;-82
2023/04/20 14:31:39;;;;;;;14.83;5.23;;;;;;;9.76;100.00;99836.25;125260;1102;102142;-82
2023/04/20 14:34:12;;;;;;;15.30;5.55;;;;;;;9.76;100.00;99832.75;125524;1102;104185;-81
2023/04/20 14:36:43;;;;;;;14.20;5.53;;;;;;;9.75;100.00;99831.84;124999;1105;118712;-81
2023/04/20 14:39:16;;;;;;;14.93;5.47;;;;;;;9.75;100.00;99836.20;124744;1106;102881;-81
2023/04/20 14:41:49;;;;;;;17.67;5.70;;;;;;;9.76;100.00;99837.99;125282;1105;102384;-82
2023/04/20 14:44:20;;;;;;;20.10;6.20;;;;;;;9.74;100.00;99835.33;124532;1103;104221;-82
2023/04/20 14:46:52;;;;;;;18.10;6.13;;;;;;;9.74;100.00;99830.09;124503;1102;102199;-83
2023/04/20 14:49:25;;;;;;;18.07;6.20;;;;;;;9.73;100.00;99835.28;124873;1105;104220;-80
2023/04/20 14:51:59;;;;;;;17.83;5.83;;;;;;;9.72;100.00;99842.23;124874;1102;102276;-80
2023/04/20 14:54:32;;;;;;;14.53;5.70;;;;;;;9.69;100.00;99839.52;124948;1105;104199;-81
2023/04/20 14:57:06;;;;;;;12.80;5.00;;;;;;;9.68;100.00;99841.27;124656;1105;102570;-80
2023/04/20 14:59:40;;;;;;;11.80;4.90;;;;;;;9.68;100.00;99841.27;124978;1105;102988;-79
2023/04/20 15:02:12;;;;;;;12.53;4.87;;;;;;;9.65;100.00;99843.80;124175;1105;103024;-81
2023/04/20 15:04:46;;;;;;;13.10;5.37;;;;;;;9.65;100.00;99841.18;124396;1103;104328;-80
2023/04/20 15:07:21;;;;;;;14.93;5.73;;;;;;;9.64;100.00;99838.52;124327;1102;104230;-81
2023/04/20 15:09:54;;;;;;;18.10;5.40;;;;;;;9.61;100.00;99843.66;124677;1105;104399;-80
2023/04/20 15:12:25;;;;;;;16.90;6.23;;;;;;;9.60;100.00;99847.11;125360;1102;104310;-79
2023/04/20 15:14:56;;;;;;;17.13;5.67;;;;;;;9.58;100.00;99843.58;125329;1102;102681;-81
2023/04/20 15:17:28;;;;;;;20.23;5.77;;;;;;;9.52;100.00;99844.27;125476;1105;102380;-80
2023/04/20 15:19:59;;;;;;;15.40;6.03;;;;;;;9.49;100.00;99842.47;124939;1105;102102;-80
2023/04/20 15:22:31;;;;;;;17.93;5.77;;;;;;;9.45;100.00;99842.34;124880;1105;102253;-79
2023/04/20 15:25:02;;;;;;;22.53;6.40;;;;;;;9.42;100.00;99837.01;125041;1105;102508;-81
2023/04/20 15:27:34;;;;;;;16.70;6.40;;;;;;;9.42;100.00;99840.50;124468;1102;104393;-80
2023/04/20 15:30:07;;;;;;;18.00;7.13;;;;;;;9.42;100.00;99837.88;124368;1102;104281;-80
2023/04/20 15:32:39;;;;;;;17.77;5.90;;;;;;;9.39;100.00;99832.55;124335;1105;104284;-80
2023/04/20 15:35:10;;;;;;;16.17;6.13;;;;;;;9.37;100.00;99823.78;123914;1103;104283;-80
2023/04/20 15:37:41;;;;;;;17.33;5.80;;;;;;;9.33;100.00;99828.05;124113;1105;102099;-81
2023/04/20 15:40:16;;;;;;;19.63;6.03;;;;;;;9.30;100.00;99827.95;124062;1105;104367;-84
2023/04/20 15:42:48;;;;;;;16.90;6.50;;;;;;;9.29;100.00;99822.67;124687;1105;104488;-83
2023/04/20 15:45:19;;;;;;;14.90;6.33;;;;;;;9.27;100.00;99817.39;124526;1105;104265;-83
2023/04/20 15:47:52;;;;;;;16.23;6.03;;;;;;;9.27;100.00;99822.62;124889;1105;104450;-81
2023/04/20 15:50:23;;;;;;;17.00;6.87;;;;;;;9.26;100.00;99817.34;124598;1103;104191;-82
2023/04/20 15:52:55;;;;;;;17.93;6.67;;;;;;;9.23;100.00;99812.89;124273;1105;104284;-83
2023/04/20 15:55:26;;;;;;;21.47;7.37;;;;;;;9.21;100.00;99811.97;124596;1106;104299;-82
2023/04/20 15:57:59;;;;;;;19.77;7.20;;;;;;;9.22;100.00;99811.10;124516;1106;104345;-82
2023/04/20 16:00:30;;;;;;;19.73;6.77;;;;;;;9.22;100.00;99808.48;124288;1105;104341;-81
2023/04/20 16:03:04;;;;;;;21.60;7.57;;;;;;;9.23;100.00;99809.39;124374;1102;104239;-81
2023/04/20 16:05:36;;;;;;;23.40;7.10;;;;;;;9.21;100.00;99806.73;124337;1105;104325;-82
2023/04/20 16:08:08;;;;;;;20.10;7.03;;;;;;;9.21;100.00;99809.34;124102;1105;104297;-82